sensor_id;sensor_type;location;lat;lon;timestamp;temperature;humidity
22249;DHT22;67538;52.180;5.646;2023-05-13T00:01:44;14.00;99.90
22249;DHT22;67538;52.180;5.646;2023-05-13T00:04:11;13.90;99.90
22249;DHT22;67538;52.180;5.646;2023-05-13T00:06:39;13.90;99.90
22249;DHT22;67538;52.180;5.646;2023-05-13T00:09:06;13.80;99.90
22249;DHT22;67538;52.180;5.646;2023-05-13T00:11:34;13.80;99.90
22249;DHT22;67538;52.180;5.646;2023-05-13T00:14:01;13.70;99.90
22249;DHT22;67538;52.180;5.646;2023-05-13T00:16:28;13.70;99.90
22249;DHT22;67538;52.180;5.646;2023-05-13T00:18:55;13.70;99.90
22249;DHT22;67538;52.180;5.646;2023-05-13T00:21:22;13.70;99.90
22249;DHT22;67538;52.180;5.646;2023-05-13T00:23:51;13.60;99.90
22249;DHT22;67538;52.180;5.646;2023-05-13T00:26:18;13.60;99.90
22249;DHT22;67538;52.180;5.646;2023-05-13T00:28:46;13.60;99.90
22249;DHT22;67538;52.180;5.646;2023-05-13T00:31:13;13.60;99.90
22249;DHT22;67538;52.180;5.646;2023-05-13T00:33:40;13.60;99.90
22249;DHT22;67538;52.180;5.646;2023-05-13T00:36:07;13.50;99.90
22249;DHT22;67538;52.180;5.646;2023-05-13T00:38:36;13.40;99.90
22249;DHT22;67538;52.180;5.646;2023-05-13T00:41:05;13.40;99.90
22249;DHT22;67538;52.180;5.646;2023-05-13T00:43:32;13.30;99.90
22249;DHT22;67538;52.180;5.646;2023-05-13T00:45:59;13.30;99.90
22249;DHT22;67538;52.180;5.646;2023-05-13T00:48:26;13.20;99.90
22249;DHT22;67538;52.180;5.646;2023-05-13T00:50:54;13.20;99.90
22249;DHT22;67538;52.180;5.646;2023-05-13T00:53:21;13.20;99.90
22249;DHT22;67538;52.180;5.646;2023-05-13T00:55:48;13.10;99.90
22249;DHT22;67538;52.180;5.646;2023-05-13T00:58:16;13.10;99.90
22249;DHT22;67538;52.180;5.646;2023-05-13T01:00:50;13.10;99.90
22249;DHT22;67538;52.180;5.646;2023-05-13T01:03:24;13.10;99.90
22249;DHT22;67538;52.180;5.646;2023-05-13T01:05:59;13.10;99.90
22249;DHT22;67538;52.180;5.646;2023-05-13T01:08:34;13.00;99.90
22249;DHT22;67538;52.180;5.646;2023-05-13T01:11:07;13.00;99.90
22249;DHT22;67538;52.180;5.646;2023-05-13T01:13:39;12.90;99.90
22249;DHT22;67538;52.180;5.646;2023-05-13T01:16:15;13.00;99.90
22249;DHT22;67538;52.180;5.646;2023-05-13T01:18:45;12.90;99.90
22249;DHT22;67538;52.180;5.646;2023-05-13T01:21:15;12.90;99.90
22249;DHT22;67538;52.180;5.646;2023-05-13T01:23:43;12.90;99.90
22249;DHT22;67538;52.180;5.646;2023-05-13T01:26:10;12.80;99.90
22249;DHT22;67538;52.180;5.646;2023-05-13T01:28:37;12.80;99.90
22249;DHT22;67538;52.180;5.646;2023-05-13T01:31:05;12.80;99.90
22249;DHT22;67538;52.180;5.646;2023-05-13T01:33:35;12.80;99.90
22249;DHT22;67538;52.180;5.646;2023-05-13T01:36:03;12.80;99.90
22249;DHT22;67538;52.180;5.646;2023-05-13T01:38:31;12.70;99.90
22249;DHT22;67538;52.180;5.646;2023-05-13T01:41:00;12.70;99.90
22249;DHT22;67538;52.180;5.646;2023-05-13T01:43:27;12.70;99.90
22249;DHT22;67538;52.180;5.646;2023-05-13T01:45:55;12.60;99.90
22249;DHT22;67538;52.180;5.646;2023-05-13T01:48:24;12.60;99.90
22249;DHT22;67538;52.180;5.646;2023-05-13T01:50:52;12.60;99.90
22249;DHT22;67538;52.180;5.646;2023-05-13T01:53:19;12.50;99.90
22249;DHT22;67538;52.180;5.646;2023-05-13T01:55:46;12.40;99.90
22249;DHT22;67538;52.180;5.646;2023-05-13T01:58:14;12.40;99.90
22249;DHT22;67538;52.180;5.646;2023-05-13T02:00:41;12.30;99.90
22249;DHT22;67538;52.180;5.646;2023-05-13T02:03:08;12.30;99.90
22249;DHT22;67538;52.180;5.646;2023-05-13T02:05:35;12.30;99.90
22249;DHT22;67538;52.180;5.646;2023-05-13T02:08:02;12.20;99.90
22249;DHT22;67538;52.180;5.646;2023-05-13T02:10:29;12.20;99.90
22249;DHT22;67538;52.180;5.646;2023-05-13T02:12:56;12.10;99.90
22249;DHT22;67538;52.180;5.646;2023-05-13T02:15:25;12.10;99.90
22249;DHT22;67538;52.180;5.646;2023-05-13T02:17:52;12.10;99.90
22249;DHT22;67538;52.180;5.646;2023-05-13T02:20:19;12.00;99.90
22249;DHT22;67538;52.180;5.646;2023-05-13T02:22:46;11.90;99.90
22249;DHT22;67538;52.180;5.646;2023-05-13T02:25:13;11.90;99.90
22249;DHT22;67538;52.180;5.646;2023-05-13T02:27:40;11.80;99.90
22249;DHT22;67538;52.180;5.646;2023-05-13T02:30:08;11.80;99.90
22249;DHT22;67538;52.180;5.646;2023-05-13T02:32:36;11.70;99.90
22249;DHT22;67538;52.180;5.646;2023-05-13T02:35:07;11.70;99.90
22249;DHT22;67538;52.180;5.646;2023-05-13T02:37:34;11.70;99.90
22249;DHT22;67538;52.180;5.646;2023-05-13T02:40:02;11.70;99.90
22249;DHT22;67538;52.180;5.646;2023-05-13T02:42:29;11.70;99.90
22249;DHT22;67538;52.180;5.646;2023-05-13T02:44:56;11.60;99.90
22249;DHT22;67538;52.180;5.646;2023-05-13T02:47:23;11.50;99.90
22249;DHT22;67538;52.180;5.646;2023-05-13T02:49:53;11.40;99.90
22249;DHT22;67538;52.180;5.646;2023-05-13T02:52:20;11.30;99.90
22249;DHT22;67538;52.180;5.646;2023-05-13T02:54:47;11.30;99.90
22249;DHT22;67538;52.180;5.646;2023-05-13T02:57:14;11.30;99.90
22249;DHT22;67538;52.180;5.646;2023-05-13T02:59:42;11.30;99.90
22249;DHT22;67538;52.180;5.646;2023-05-13T03:02:09;11.30;99.90
22249;DHT22;67538;52.180;5.646;2023-05-13T03:04:36;11.30;99.90
22249;DHT22;67538;52.180;5.646;2023-05-13T03:07:04;11.30;99.90
22249;DHT22;67538;52.180;5.646;2023-05-13T03:09:31;11.30;99.90
22249;DHT22;67538;52.180;5.646;2023-05-13T03:11:59;11.30;99.90
22249;DHT22;67538;52.180;5.646;2023-05-13T03:14:26;11.30;99.90
22249;DHT22;67538;52.180;5.646;2023-05-13T03:16:53;11.30;99.90
22249;DHT22;67538;52.180;5.646;2023-05-13T03:19:20;11.30;99.90
22249;DHT22;67538;52.180;5.646;2023-05-13T03:21:47;11.30;99.90
22249;DHT22;67538;52.180;5.646;2023-05-13T03:24:16;11.30;99.90
22249;DHT22;67538;52.180;5.646;2023-05-13T03:26:43;11.20;99.90
22249;DHT22;67538;52.180;5.646;2023-05-13T03:29:10;11.20;99.90
22249;DHT22;67538;52.180;5.646;2023-05-13T03:31:37;11.10;99.90
22249;DHT22;67538;52.180;5.646;2023-05-13T03:34:04;11.10;99.90
22249;DHT22;67538;52.180;5.646;2023-05-13T03:36:31;11.10;99.90
22249;DHT22;67538;52.180;5.646;2023-05-13T03:38:58;11.10;99.90
22249;DHT22;67538;52.180;5.646;2023-05-13T03:41:27;11.10;99.90
22249;DHT22;67538;52.180;5.646;2023-05-13T03:43:54;11.00;99.90
22249;DHT22;67538;52.180;5.646;2023-05-13T03:46:21;11.00;99.90
22249;DHT22;67538;52.180;5.646;2023-05-13T03:48:48;11.00;99.90
22249;DHT22;67538;52.180;5.646;2023-05-13T03:51:15;11.00;99.90
22249;DHT22;67538;52.180;5.646;2023-05-13T03:53:42;10.90;99.90
22249;DHT22;67538;52.180;5.646;2023-05-13T03:56:09;10.90;99.90
22249;DHT22;67538;52.180;5.646;2023-05-13T03:58:37;10.90;99.90
22249;DHT22;67538;52.180;5.646;2023-05-13T04:01:06;10.90;99.90
22249;DHT22;67538;52.180;5.646;2023-05-13T04:03:33;10.80;99.90
22249;DHT22;67538;52.180;5.646;2023-05-13T04:06:00;10.80;99.90
22249;DHT22;67538;52.180;5.646;2023-05-13T04:08:27;10.80;99.90
22249;DHT22;67538;52.180;5.646;2023-05-13T04:10:54;10.80;99.90
22249;DHT22;67538;52.180;5.646;2023-05-13T04:13:22;10.80;99.90
22249;DHT22;67538;52.180;5.646;2023-05-13T04:15:50;10.70;99.90
22249;DHT22;67538;52.180;5.646;2023-05-13T04:18:19;10.70;99.90
22249;DHT22;67538;52.180;5.646;2023-05-13T04:20:46;10.80;99.90
22249;DHT22;67538;52.180;5.646;2023-05-13T04:23:13;10.70;99.90
22249;DHT22;67538;52.180;5.646;2023-05-13T04:25:40;10.70;99.90
22249;DHT22;67538;52.180;5.646;2023-05-13T04:28:07;10.80;99.90
22249;DHT22;67538;52.180;5.646;2023-05-13T04:30:34;10.80;99.90
22249;DHT22;67538;52.180;5.646;2023-05-13T04:33:03;10.80;99.90
22249;DHT22;67538;52.180;5.646;2023-05-13T04:35:31;10.90;99.90
22249;DHT22;67538;52.180;5.646;2023-05-13T04:37:58;10.90;99.90
22249;DHT22;67538;52.180;5.646;2023-05-13T04:40:25;11.00;99.90
22249;DHT22;67538;52.180;5.646;2023-05-13T04:42:52;11.00;99.90
22249;DHT22;67538;52.180;5.646;2023-05-13T04:45:20;11.10;99.90
22249;DHT22;67538;52.180;5.646;2023-05-13T04:47:47;11.10;99.90
22249;DHT22;67538;52.180;5.646;2023-05-13T04:50:15;11.20;99.90
22249;DHT22;67538;52.180;5.646;2023-05-13T04:52:42;11.20;99.90
22249;DHT22;67538;52.180;5.646;2023-05-13T04:55:10;11.30;99.90
22249;DHT22;67538;52.180;5.646;2023-05-13T04:57:37;11.40;99.90
22249;DHT22;67538;52.180;5.646;2023-05-13T05:00:06;11.40;99.90
22249;DHT22;67538;52.180;5.646;2023-05-13T05:02:34;11.50;99.90
22249;DHT22;67538;52.180;5.646;2023-05-13T05:05:01;11.60;99.90
22249;DHT22;67538;52.180;5.646;2023-05-13T05:07:29;11.70;99.90
22249;DHT22;67538;52.180;5.646;2023-05-13T05:09:56;11.70;99.90
22249;DHT22;67538;52.180;5.646;2023-05-13T05:12:23;11.80;99.90
22249;DHT22;67538;52.180;5.646;2023-05-13T05:14:50;11.90;99.90
22249;DHT22;67538;52.180;5.646;2023-05-13T05:17:17;11.90;99.90
22249;DHT22;67538;52.180;5.646;2023-05-13T05:19:45;12.00;99.90
22249;DHT22;67538;52.180;5.646;2023-05-13T05:22:11;12.30;99.90
22249;DHT22;67538;52.180;5.646;2023-05-13T05:24:40;12.80;99.90
22249;DHT22;67538;52.180;5.646;2023-05-13T05:27:07;12.90;99.90
22249;DHT22;67538;52.180;5.646;2023-05-13T05:29:34;12.90;99.90
22249;DHT22;67538;52.180;5.646;2023-05-13T05:32:01;12.90;99.90
22249;DHT22;67538;52.180;5.646;2023-05-13T05:34:28;13.00;99.90
22249;DHT22;67538;52.180;5.646;2023-05-13T05:36:55;13.10;99.90
22249;DHT22;67538;52.180;5.646;2023-05-13T05:39:22;13.40;99.90
22249;DHT22;67538;52.180;5.646;2023-05-13T05:41:52;14.10;99.90
22249;DHT22;67538;52.180;5.646;2023-05-13T05:44:19;14.90;99.90
22249;DHT22;67538;52.180;5.646;2023-05-13T05:46:46;15.70;99.90
22249;DHT22;67538;52.180;5.646;2023-05-13T05:49:13;15.70;99.90
22249;DHT22;67538;52.180;5.646;2023-05-13T05:51:40;15.30;99.90
22249;DHT22;67538;52.180;5.646;2023-05-13T05:54:07;14.90;99.90
22249;DHT22;67538;52.180;5.646;2023-05-13T05:56:34;14.60;99.90
22249;DHT22;67538;52.180;5.646;2023-05-13T05:59:03;14.40;99.90
22249;DHT22;67538;52.180;5.646;2023-05-13T06:01:30;14.40;99.90
22249;DHT22;67538;52.180;5.646;2023-05-13T06:03:59;14.50;99.90
22249;DHT22;67538;52.180;5.646;2023-05-13T06:06:26;14.60;99.90
22249;DHT22;67538;52.180;5.646;2023-05-13T06:08:53;14.80;99.90
22249;DHT22;67538;52.180;5.646;2023-05-13T06:11:20;15.50;99.90
22249;DHT22;67538;52.180;5.646;2023-05-13T06:13:47;15.50;99.90
22249;DHT22;67538;52.180;5.646;2023-05-13T06:16:15;15.50;99.90
22249;DHT22;67538;52.180;5.646;2023-05-13T06:18:43;15.80;99.90
22249;DHT22;67538;52.180;5.646;2023-05-13T06:21:10;15.90;99.90
22249;DHT22;67538;52.180;5.646;2023-05-13T06:23:37;16.10;99.90
22249;DHT22;67538;52.180;5.646;2023-05-13T06:26:04;16.60;99.90
22249;DHT22;67538;52.180;5.646;2023-05-13T06:28:31;17.00;99.90
22249;DHT22;67538;52.180;5.646;2023-05-13T06:30:58;17.90;99.90
22249;DHT22;67538;52.180;5.646;2023-05-13T06:33:26;18.40;99.90
22249;DHT22;67538;52.180;5.646;2023-05-13T06:35:53;18.60;99.90
22249;DHT22;67538;52.180;5.646;2023-05-13T06:38:21;19.70;99.90
22249;DHT22;67538;52.180;5.646;2023-05-13T06:40:48;19.40;99.90
22249;DHT22;67538;52.180;5.646;2023-05-13T06:43:15;18.40;99.90
22249;DHT22;67538;52.180;5.646;2023-05-13T06:45:42;17.80;99.90
22249;DHT22;67538;52.180;5.646;2023-05-13T06:48:09;17.10;99.90
22249;DHT22;67538;52.180;5.646;2023-05-13T06:50:38;16.70;99.90
22249;DHT22;67538;52.180;5.646;2023-05-13T06:53:05;16.60;99.90
22249;DHT22;67538;52.180;5.646;2023-05-13T06:55:32;16.80;99.90
22249;DHT22;67538;52.180;5.646;2023-05-13T06:58:06;17.20;99.90
22249;DHT22;67538;52.180;5.646;2023-05-13T07:00:36;17.40;99.90
22249;DHT22;67538;52.180;5.646;2023-05-13T07:03:03;17.30;99.90
22249;DHT22;67538;52.180;5.646;2023-05-13T07:05:31;17.20;99.90
22249;DHT22;67538;52.180;5.646;2023-05-13T07:08:00;17.10;99.90
22249;DHT22;67538;52.180;5.646;2023-05-13T07:10:31;17.20;99.90
22249;DHT22;67538;52.180;5.646;2023-05-13T07:12:59;17.20;99.90
22249;DHT22;67538;52.180;5.646;2023-05-13T07:15:26;17.40;99.90
22249;DHT22;67538;52.180;5.646;2023-05-13T07:17:53;17.90;99.90
22249;DHT22;67538;52.180;5.646;2023-05-13T07:20:21;18.20;99.90
22249;DHT22;67538;52.180;5.646;2023-05-13T07:22:48;18.20;99.90
22249;DHT22;67538;52.180;5.646;2023-05-13T07:25:17;18.30;99.90
22249;DHT22;67538;52.180;5.646;2023-05-13T07:27:44;18.40;99.90
22249;DHT22;67538;52.180;5.646;2023-05-13T07:30:13;19.10;99.90
22249;DHT22;67538;52.180;5.646;2023-05-13T07:32:40;19.70;99.90
22249;DHT22;67538;52.180;5.646;2023-05-13T07:35:08;19.70;99.90
22249;DHT22;67538;52.180;5.646;2023-05-13T07:37:35;19.50;99.90
22249;DHT22;67538;52.180;5.646;2023-05-13T07:40:03;19.60;99.90
22249;DHT22;67538;52.180;5.646;2023-05-13T07:42:32;19.60;99.90
22249;DHT22;67538;52.180;5.646;2023-05-13T07:44:59;19.50;99.90
22249;DHT22;67538;52.180;5.646;2023-05-13T07:47:26;19.50;99.90
22249;DHT22;67538;52.180;5.646;2023-05-13T07:49:53;19.40;99.90
22249;DHT22;67538;52.180;5.646;2023-05-13T07:52:20;19.40;99.90
22249;DHT22;67538;52.180;5.646;2023-05-13T07:54:48;19.50;99.90
22249;DHT22;67538;52.180;5.646;2023-05-13T07:57:15;19.70;99.90
22249;DHT22;67538;52.180;5.646;2023-05-13T07:59:43;19.90;99.90
22249;DHT22;67538;52.180;5.646;2023-05-13T08:02:10;19.90;99.90
22249;DHT22;67538;52.180;5.646;2023-05-13T08:04:37;19.80;99.90
22249;DHT22;67538;52.180;5.646;2023-05-13T08:07:05;19.80;99.90
22249;DHT22;67538;52.180;5.646;2023-05-13T08:09:32;19.80;99.90
22249;DHT22;67538;52.180;5.646;2023-05-13T08:11:59;19.90;99.90
22249;DHT22;67538;52.180;5.646;2023-05-13T08:14:26;19.90;99.90
22249;DHT22;67538;52.180;5.646;2023-05-13T08:16:54;20.00;99.90
22249;DHT22;67538;52.180;5.646;2023-05-13T08:19:21;20.10;99.90
22249;DHT22;67538;52.180;5.646;2023-05-13T08:21:48;20.20;99.90
22249;DHT22;67538;52.180;5.646;2023-05-13T08:24:15;20.30;99.90
22249;DHT22;67538;52.180;5.646;2023-05-13T08:26:42;20.40;99.90
22249;DHT22;67538;52.180;5.646;2023-05-13T08:29:09;20.40;99.90
22249;DHT22;67538;52.180;5.646;2023-05-13T08:31:40;20.40;99.90
22249;DHT22;67538;52.180;5.646;2023-05-13T08:34:08;20.40;99.90
22249;DHT22;67538;52.180;5.646;2023-05-13T08:36:35;20.50;99.90
22249;DHT22;67538;52.180;5.646;2023-05-13T08:39:02;20.60;99.90
22249;DHT22;67538;52.180;5.646;2023-05-13T08:41:30;20.70;99.90
22249;DHT22;67538;52.180;5.646;2023-05-13T08:43:57;20.80;99.90
22249;DHT22;67538;52.180;5.646;2023-05-13T08:46:26;20.80;99.90
22249;DHT22;67538;52.180;5.646;2023-05-13T08:48:56;20.90;99.90
22249;DHT22;67538;52.180;5.646;2023-05-13T08:51:24;21.10;99.90
22249;DHT22;67538;52.180;5.646;2023-05-13T08:53:52;21.00;99.90
22249;DHT22;67538;52.180;5.646;2023-05-13T08:56:20;21.00;99.90
22249;DHT22;67538;52.180;5.646;2023-05-13T08:58:50;21.10;99.90
22249;DHT22;67538;52.180;5.646;2023-05-13T09:01:17;21.10;99.90
22249;DHT22;67538;52.180;5.646;2023-05-13T09:03:51;21.20;99.90
22249;DHT22;67538;52.180;5.646;2023-05-13T09:06:20;21.30;99.90
22249;DHT22;67538;52.180;5.646;2023-05-13T09:08:49;21.40;99.90
22249;DHT22;67538;52.180;5.646;2023-05-13T09:11:16;21.50;99.90
22249;DHT22;67538;52.180;5.646;2023-05-13T09:13:43;21.60;99.90
22249;DHT22;67538;52.180;5.646;2023-05-13T09:16:10;21.70;99.90
22249;DHT22;67538;52.180;5.646;2023-05-13T09:18:39;21.80;99.90
22249;DHT22;67538;52.180;5.646;2023-05-13T09:21:23;21.80;99.90
22249;DHT22;67538;52.180;5.646;2023-05-13T09:24:04;21.80;99.90
22249;DHT22;67538;52.180;5.646;2023-05-13T09:26:31;21.80;99.90
22249;DHT22;67538;52.180;5.646;2023-05-13T09:29:23;21.80;99.90
22249;DHT22;67538;52.180;5.646;2023-05-13T09:31:52;21.70;99.90
22249;DHT22;67538;52.180;5.646;2023-05-13T09:34:27;21.70;99.90
22249;DHT22;67538;52.180;5.646;2023-05-13T09:37:02;21.70;99.90
22249;DHT22;67538;52.180;5.646;2023-05-13T09:39:32;21.70;99.90
22249;DHT22;67538;52.180;5.646;2023-05-13T09:42:00;21.80;99.90
22249;DHT22;67538;52.180;5.646;2023-05-13T09:44:28;21.80;99.90
22249;DHT22;67538;52.180;5.646;2023-05-13T09:46:55;21.90;99.90
22249;DHT22;67538;52.180;5.646;2023-05-13T09:49:24;22.00;99.90
22249;DHT22;67538;52.180;5.646;2023-05-13T09:51:52;22.00;99.90
22249;DHT22;67538;52.180;5.646;2023-05-13T09:54:19;21.90;99.90
22249;DHT22;67538;52.180;5.646;2023-05-13T09:56:47;21.80;99.90
22249;DHT22;67538;52.180;5.646;2023-05-13T09:59:15;21.90;99.90
22249;DHT22;67538;52.180;5.646;2023-05-13T10:01:42;22.00;99.90
22249;DHT22;67538;52.180;5.646;2023-05-13T10:04:11;22.10;99.90
22249;DHT22;67538;52.180;5.646;2023-05-13T10:06:38;22.20;99.90
22249;DHT22;67538;52.180;5.646;2023-05-13T10:09:06;22.20;99.90
22249;DHT22;67538;52.180;5.646;2023-05-13T10:11:35;22.10;99.90
22249;DHT22;67538;52.180;5.646;2023-05-13T10:14:04;22.00;99.90
22249;DHT22;67538;52.180;5.646;2023-05-13T10:16:32;22.00;99.90
22249;DHT22;67538;52.180;5.646;2023-05-13T10:18:59;22.00;99.90
22249;DHT22;67538;52.180;5.646;2023-05-13T10:21:27;21.90;99.90
22249;DHT22;67538;52.180;5.646;2023-05-13T10:23:55;21.90;99.90
22249;DHT22;67538;52.180;5.646;2023-05-13T10:26:23;22.00;99.90
22249;DHT22;67538;52.180;5.646;2023-05-13T10:28:50;22.10;99.90
22249;DHT22;67538;52.180;5.646;2023-05-13T10:31:18;22.10;99.90
22249;DHT22;67538;52.180;5.646;2023-05-13T10:33:45;22.20;99.90
22249;DHT22;67538;52.180;5.646;2023-05-13T10:36:29;22.20;99.90
22249;DHT22;67538;52.180;5.646;2023-05-13T10:39:13;22.30;99.90
22249;DHT22;67538;52.180;5.646;2023-05-13T10:42:26;22.30;99.90
22249;DHT22;67538;52.180;5.646;2023-05-13T10:44:58;22.30;99.90
22249;DHT22;67538;52.180;5.646;2023-05-13T10:47:30;22.40;99.90
22249;DHT22;67538;52.180;5.646;2023-05-13T10:49:58;22.30;99.90
22249;DHT22;67538;52.180;5.646;2023-05-13T10:52:41;22.30;99.90
22249;DHT22;67538;52.180;5.646;2023-05-13T10:55:14;22.30;99.90
22249;DHT22;67538;52.180;5.646;2023-05-13T10:57:44;22.30;99.90
22249;DHT22;67538;52.180;5.646;2023-05-13T11:00:30;22.40;99.90
22249;DHT22;67538;52.180;5.646;2023-05-13T11:03:08;22.40;99.90
22249;DHT22;67538;52.180;5.646;2023-05-13T11:05:38;22.30;99.90
22249;DHT22;67538;52.180;5.646;2023-05-13T11:08:05;22.10;99.90
22249;DHT22;67538;52.180;5.646;2023-05-13T11:10:32;22.10;99.90
22249;DHT22;67538;52.180;5.646;2023-05-13T11:15:51;21.90;99.90
22249;DHT22;67538;52.180;5.646;2023-05-13T11:18:28;21.90;99.90
22249;DHT22;67538;52.180;5.646;2023-05-13T11:21:01;21.80;99.90
22249;DHT22;67538;52.180;5.646;2023-05-13T11:23:31;21.50;99.90
22249;DHT22;67538;52.180;5.646;2023-05-13T11:26:09;21.30;99.90
22249;DHT22;67538;52.180;5.646;2023-05-13T11:28:57;21.10;99.90
22249;DHT22;67538;52.180;5.646;2023-05-13T11:31:26;21.20;99.90
22249;DHT22;67538;52.180;5.646;2023-05-13T11:34:10;21.40;99.90
22249;DHT22;67538;52.180;5.646;2023-05-13T11:36:38;21.70;99.90
22249;DHT22;67538;52.180;5.646;2023-05-13T11:39:07;21.70;99.90
22249;DHT22;67538;52.180;5.646;2023-05-13T11:41:39;21.70;99.90
22249;DHT22;67538;52.180;5.646;2023-05-13T11:44:06;21.80;99.90
22249;DHT22;67538;52.180;5.646;2023-05-13T11:46:34;22.00;99.90
22249;DHT22;67538;52.180;5.646;2023-05-13T11:49:01;22.20;99.90
22249;DHT22;67538;52.180;5.646;2023-05-13T11:51:29;22.50;99.90
22249;DHT22;67538;52.180;5.646;2023-05-13T11:54:03;22.60;99.90
22249;DHT22;67538;52.180;5.646;2023-05-13T11:56:30;22.50;99.90
22249;DHT22;67538;52.180;5.646;2023-05-13T11:59:13;22.40;99.90
22249;DHT22;67538;52.180;5.646;2023-05-13T12:01:41;22.20;99.90
22249;DHT22;67538;52.180;5.646;2023-05-13T12:04:08;22.10;99.90
22249;DHT22;67538;52.180;5.646;2023-05-13T12:06:42;22.10;99.90
22249;DHT22;67538;52.180;5.646;2023-05-13T12:09:11;22.10;99.90
22249;DHT22;67538;52.180;5.646;2023-05-13T12:11:39;22.10;99.90
22249;DHT22;67538;52.180;5.646;2023-05-13T12:14:07;22.20;99.90
22249;DHT22;67538;52.180;5.646;2023-05-13T12:16:34;22.40;99.90
22249;DHT22;67538;52.180;5.646;2023-05-13T12:19:03;22.50;99.90
22249;DHT22;67538;52.180;5.646;2023-05-13T12:21:32;22.50;99.90
22249;DHT22;67538;52.180;5.646;2023-05-13T12:24:00;22.40;99.90
22249;DHT22;67538;52.180;5.646;2023-05-13T12:26:28;22.10;99.90
22249;DHT22;67538;52.180;5.646;2023-05-13T12:28:57;22.10;99.90
22249;DHT22;67538;52.180;5.646;2023-05-13T12:31:24;22.10;99.90
22249;DHT22;67538;52.180;5.646;2023-05-13T12:33:52;21.90;99.90
22249;DHT22;67538;52.180;5.646;2023-05-13T12:36:20;21.70;99.90
22249;DHT22;67538;52.180;5.646;2023-05-13T12:38:57;21.60;99.90
22249;DHT22;67538;52.180;5.646;2023-05-13T12:41:27;21.70;99.90
22249;DHT22;67538;52.180;5.646;2023-05-13T12:43:57;21.90;99.90
22249;DHT22;67538;52.180;5.646;2023-05-13T12:46:24;22.10;99.90
22249;DHT22;67538;52.180;5.646;2023-05-13T12:48:53;22.40;99.90
22249;DHT22;67538;52.180;5.646;2023-05-13T12:51:20;22.70;99.90
22249;DHT22;67538;52.180;5.646;2023-05-13T12:53:47;22.70;99.90
22249;DHT22;67538;52.180;5.646;2023-05-13T12:56:14;22.40;99.90
22249;DHT22;67538;52.180;5.646;2023-05-13T12:58:43;22.00;99.90
22249;DHT22;67538;52.180;5.646;2023-05-13T13:01:10;21.60;99.90
22249;DHT22;67538;52.180;5.646;2023-05-13T13:03:37;21.40;99.90
22249;DHT22;67538;52.180;5.646;2023-05-13T13:06:05;21.40;99.90
22249;DHT22;67538;52.180;5.646;2023-05-13T13:08:32;21.60;99.90
22249;DHT22;67538;52.180;5.646;2023-05-13T13:10:59;21.80;99.90
22249;DHT22;67538;52.180;5.646;2023-05-13T13:13:26;21.90;99.90
22249;DHT22;67538;52.180;5.646;2023-05-13T13:15:54;21.80;99.90
22249;DHT22;67538;52.180;5.646;2023-05-13T13:18:21;21.70;99.90
22249;DHT22;67538;52.180;5.646;2023-05-13T13:20:48;21.70;99.90
22249;DHT22;67538;52.180;5.646;2023-05-13T13:23:16;21.80;99.90
22249;DHT22;67538;52.180;5.646;2023-05-13T13:25:43;21.90;99.90
22249;DHT22;67538;52.180;5.646;2023-05-13T13:28:10;22.00;99.90
22249;DHT22;67538;52.180;5.646;2023-05-13T13:30:37;22.00;99.90
22249;DHT22;67538;52.180;5.646;2023-05-13T13:33:12;22.20;99.90
22249;DHT22;67538;52.180;5.646;2023-05-13T13:35:41;22.30;99.90
22249;DHT22;67538;52.180;5.646;2023-05-13T13:38:08;22.30;99.90
22249;DHT22;67538;52.180;5.646;2023-05-13T13:40:35;22.40;99.90
22249;DHT22;67538;52.180;5.646;2023-05-13T13:43:02;22.50;99.90
22249;DHT22;67538;52.180;5.646;2023-05-13T13:45:29;22.50;99.90
22249;DHT22;67538;52.180;5.646;2023-05-13T13:47:56;22.60;99.90
22249;DHT22;67538;52.180;5.646;2023-05-13T13:50:25;22.60;99.90
22249;DHT22;67538;52.180;5.646;2023-05-13T13:52:52;22.70;99.90
22249;DHT22;67538;52.180;5.646;2023-05-13T13:55:19;22.70;99.90
22249;DHT22;67538;52.180;5.646;2023-05-13T13:57:46;22.70;99.90
22249;DHT22;67538;52.180;5.646;2023-05-13T14:00:14;22.50;99.90
22249;DHT22;67538;52.180;5.646;2023-05-13T14:02:42;22.40;99.90
22249;DHT22;67538;52.180;5.646;2023-05-13T14:05:10;22.40;99.90
22249;DHT22;67538;52.180;5.646;2023-05-13T14:07:38;22.40;99.90
22249;DHT22;67538;52.180;5.646;2023-05-13T14:10:07;22.40;99.90
22249;DHT22;67538;52.180;5.646;2023-05-13T14:12:34;22.30;99.90
22249;DHT22;67538;52.180;5.646;2023-05-13T14:15:02;22.30;99.90
22249;DHT22;67538;52.180;5.646;2023-05-13T14:17:29;22.40;99.90
22249;DHT22;67538;52.180;5.646;2023-05-13T14:19:56;22.50;99.90
22249;DHT22;67538;52.180;5.646;2023-05-13T14:22:23;22.30;99.90
22249;DHT22;67538;52.180;5.646;2023-05-13T14:24:52;22.10;99.90
22249;DHT22;67538;52.180;5.646;2023-05-13T14:27:19;21.80;99.90
22249;DHT22;67538;52.180;5.646;2023-05-13T14:29:49;21.60;99.90
22249;DHT22;67538;52.180;5.646;2023-05-13T14:32:16;21.50;99.90
22249;DHT22;67538;52.180;5.646;2023-05-13T14:34:43;21.50;99.90
22249;DHT22;67538;52.180;5.646;2023-05-13T14:37:10;21.60;99.90
22249;DHT22;67538;52.180;5.646;2023-05-13T14:39:38;21.80;99.90
22249;DHT22;67538;52.180;5.646;2023-05-13T14:42:06;22.00;99.90
22249;DHT22;67538;52.180;5.646;2023-05-13T14:44:36;21.90;99.90
22249;DHT22;67538;52.180;5.646;2023-05-13T14:47:03;21.80;99.90
22249;DHT22;67538;52.180;5.646;2023-05-13T14:49:31;21.60;99.90
22249;DHT22;67538;52.180;5.646;2023-05-13T14:51:58;21.40;99.90
22249;DHT22;67538;52.180;5.646;2023-05-13T14:54:25;21.50;99.90
22249;DHT22;67538;52.180;5.646;2023-05-13T14:56:52;21.80;99.90
22249;DHT22;67538;52.180;5.646;2023-05-13T14:59:21;22.00;99.90
22249;DHT22;67538;52.180;5.646;2023-05-13T15:01:48;22.10;99.90
22249;DHT22;67538;52.180;5.646;2023-05-13T15:04:15;22.00;99.90
22249;DHT22;67538;52.180;5.646;2023-05-13T15:06:42;21.90;99.90
22249;DHT22;67538;52.180;5.646;2023-05-13T15:09:09;21.70;99.90
22249;DHT22;67538;52.180;5.646;2023-05-13T15:11:36;21.70;99.90
22249;DHT22;67538;52.180;5.646;2023-05-13T15:14:03;21.60;99.90
22249;DHT22;67538;52.180;5.646;2023-05-13T15:16:32;21.50;99.90
22249;DHT22;67538;52.180;5.646;2023-05-13T15:18:59;21.60;99.90
22249;DHT22;67538;52.180;5.646;2023-05-13T15:21:26;21.70;99.90
22249;DHT22;67538;52.180;5.646;2023-05-13T15:23:53;21.80;99.90
22249;DHT22;67538;52.180;5.646;2023-05-13T15:26:20;22.00;99.90
22249;DHT22;67538;52.180;5.646;2023-05-13T15:28:48;22.30;99.90
22249;DHT22;67538;52.180;5.646;2023-05-13T15:31:15;22.10;99.90
22249;DHT22;67538;52.180;5.646;2023-05-13T15:33:43;21.80;99.90
22249;DHT22;67538;52.180;5.646;2023-05-13T15:36:10;21.40;99.90
22249;DHT22;67538;52.180;5.646;2023-05-13T15:38:37;21.30;99.90
22249;DHT22;67538;52.180;5.646;2023-05-13T15:41:05;21.10;99.90